createdAt,value
2018-02-13T00:00:49.262Z,100724.84
2018-02-13T00:03:16.702Z,100726.55
2018-02-13T00:05:44.098Z,100728.62
2018-02-13T00:08:11.486Z,100733.80
2018-02-13T00:10:38.874Z,100731.23
2018-02-13T00:13:06.326Z,100737.59
2018-02-13T00:15:33.783Z,100738.05
2018-02-13T00:18:01.239Z,100729.20
2018-02-13T00:20:28.906Z,100734.30
2018-02-13T00:23:01.277Z,100737.22
2018-02-13T00:25:28.728Z,100735.77
2018-02-13T00:27:56.126Z,100733.11
2018-02-13T00:30:23.518Z,100738.05
2018-02-13T00:32:50.912Z,100733.28
2018-02-13T00:35:18.305Z,100731.65
2018-02-13T00:37:45.699Z,100731.33
2018-02-13T00:40:13.094Z,100729.81
2018-02-13T00:42:40.577Z,100729.66
2018-02-13T00:45:07.990Z,100726.23
2018-02-13T00:47:35.382Z,100726.17
2018-02-13T00:50:02.781Z,100733.11
2018-02-13T00:52:30.170Z,100732.34
2018-02-13T00:54:57.550Z,100728.92
2018-02-13T00:57:24.950Z,100732.98
2018-02-13T00:59:52.425Z,100726.81
2018-02-13T01:02:19.882Z,100731.23
2018-02-13T01:04:47.333Z,100733.09
2018-02-13T01:07:14.734Z,100733.39
2018-02-13T01:09:42.138Z,100731.05
2018-02-13T01:12:10.120Z,100732.77
2018-02-13T01:14:37.502Z,100727.63
2018-02-13T01:17:05.703Z,100731.37
2018-02-13T01:19:33.090Z,100725.66
2018-02-13T01:22:00.489Z,100730.69
2018-02-13T01:24:27.902Z,100726.16
2018-02-13T01:26:55.306Z,100726.56
2018-02-13T01:29:22.701Z,100733.92
2018-02-13T01:31:50.102Z,100726.95
2018-02-13T01:34:17.495Z,100723.62
2018-02-13T01:36:44.890Z,100719.14
2018-02-13T01:39:12.282Z,100727.16
2018-02-13T01:41:39.786Z,100724.55
2018-02-13T01:44:07.173Z,100727.52
2018-02-13T01:46:34.598Z,100724.73
2018-02-13T01:49:02.050Z,100720.83
2018-02-13T01:51:29.449Z,100716.50
2018-02-13T01:53:56.854Z,100718.73
2018-02-13T01:56:24.256Z,100722.63
2018-02-13T01:58:51.661Z,100721.47
2018-02-13T02:01:19.066Z,100721.57
2018-02-13T02:03:46.458Z,100719.89
2018-02-13T02:06:13.854Z,100717.16
2018-02-13T02:08:41.714Z,100718.67
2018-02-13T02:11:09.099Z,100711.04
2018-02-13T02:13:36.518Z,100710.66
2018-02-13T02:16:03.961Z,100705.41
2018-02-13T02:18:31.398Z,100719.91
2018-02-13T02:20:58.873Z,100709.84
2018-02-13T02:23:26.270Z,100713.12
2018-02-13T02:25:53.661Z,100709.83
2018-02-13T02:28:21.075Z,100708.66
2018-02-13T02:30:48.462Z,100713.09
2018-02-13T02:33:16.917Z,100709.34
2018-02-13T02:35:44.334Z,100709.64
2018-02-13T02:38:11.791Z,100710.00
2018-02-13T02:40:39.245Z,100722.58
2018-02-13T02:43:06.638Z,100715.90
2018-02-13T02:45:34.029Z,100719.42
2018-02-13T02:48:01.428Z,100714.05
2018-02-13T02:50:28.884Z,100709.17
2018-02-13T02:52:56.284Z,100711.10
2018-02-13T02:55:23.677Z,100712.30
2018-02-13T02:57:51.130Z,100713.64
2018-02-13T03:00:18.521Z,100717.04
2018-02-13T03:02:45.952Z,100719.03
2018-02-13T03:05:13.394Z,100723.91
2018-02-13T03:07:40.794Z,100731.42
2018-02-13T03:10:08.192Z,100722.77
2018-02-13T03:12:35.666Z,100724.05
2018-02-13T03:15:03.057Z,100727.67
2018-02-13T03:17:30.469Z,100720.88
2018-02-13T03:19:57.925Z,100720.77
2018-02-13T03:22:25.318Z,100713.61
2018-02-13T03:24:52.735Z,100717.86
2018-02-13T03:27:20.133Z,100721.36
2018-02-13T03:29:47.520Z,100715.27
2018-02-13T03:32:15.014Z,100720.73
2018-02-13T03:34:42.402Z,100719.40
2018-02-13T03:37:09.797Z,100713.41
2018-02-13T03:39:37.190Z,100708.21
2018-02-13T03:42:04.596Z,100707.78
2018-02-13T03:44:32.130Z,100711.83
2018-02-13T03:46:59.653Z,100713.16
2018-02-13T03:49:27.107Z,100716.01
2018-02-13T03:51:54.515Z,100717.97
2018-02-13T03:54:22.015Z,100705.96
2018-02-13T03:56:49.398Z,100710.80
2018-02-13T03:59:16.797Z,100715.08
2018-02-13T04:01:44.185Z,100707.59
2018-02-13T04:04:11.622Z,100716.77
2018-02-13T04:06:39.010Z,100718.55
2018-02-13T04:09:06.407Z,100718.14
2018-02-13T04:11:33.802Z,100717.32
2018-02-13T04:14:01.353Z,100721.91
2018-02-13T04:16:28.798Z,100715.44
2018-02-13T04:18:56.200Z,100729.27
2018-02-13T04:21:23.614Z,100724.05
2018-02-13T04:23:51.018Z,100722.35
2018-02-13T04:26:18.403Z,100724.59
2018-02-13T04:28:45.793Z,100720.62
2018-02-13T04:31:13.186Z,100720.58
2018-02-13T04:33:40.694Z,100718.00
2018-02-13T04:36:08.088Z,100720.69
2018-02-13T04:38:35.494Z,100714.13
2018-02-13T04:41:02.954Z,100718.86
2018-02-13T04:43:30.350Z,100716.30
2018-02-13T04:45:57.766Z,100719.84
2018-02-13T04:48:25.217Z,100721.72
2018-02-13T04:50:52.610Z,100725.00
2018-02-13T04:53:20.010Z,100722.22
2018-02-13T04:55:47.482Z,100713.84
2018-02-13T04:58:14.882Z,100721.32
2018-02-13T05:00:42.277Z,100720.24
2018-02-13T05:03:09.681Z,100718.72
2018-02-13T05:05:37.094Z,100722.41
2018-02-13T05:08:04.494Z,100723.62
2018-02-13T05:10:31.919Z,100714.04
2018-02-13T05:12:59.383Z,100710.02
2018-02-13T05:15:26.825Z,100712.73
2018-02-13T05:17:54.229Z,100710.92
2018-02-13T05:20:21.742Z,100711.66
2018-02-13T05:22:49.141Z,100710.67
2018-02-13T05:25:16.552Z,100712.84
2018-02-13T05:27:43.954Z,100707.00
2018-02-13T05:30:11.349Z,100708.66
2018-02-13T05:32:38.751Z,100706.38
2018-02-13T05:35:06.143Z,100711.91
2018-02-13T05:37:33.618Z,100710.42
2018-02-13T05:40:01.086Z,100709.04
2018-02-13T05:42:28.538Z,100706.16
2018-02-13T05:44:55.925Z,100709.95
2018-02-13T05:47:23.322Z,100703.39
2018-02-13T05:49:50.721Z,100702.23
2018-02-13T05:52:18.157Z,100702.69
2018-02-13T05:54:45.550Z,100701.06
2018-02-13T05:57:12.941Z,100706.31
2018-02-13T05:59:40.346Z,100704.63
2018-02-13T06:02:07.773Z,100704.13
2018-02-13T06:04:35.182Z,100706.25
2018-02-13T06:07:02.574Z,100705.73
2018-02-13T06:09:29.977Z,100709.70
2018-02-13T06:11:57.399Z,100712.94
2018-02-13T06:14:24.790Z,100717.73
2018-02-13T06:16:52.211Z,100714.30
2018-02-13T06:19:19.605Z,100718.13
2018-02-13T06:21:47.006Z,100711.17
2018-02-13T06:24:14.509Z,100713.51
2018-02-13T06:26:41.902Z,100711.39
2018-02-13T06:29:09.321Z,100709.39
2018-02-13T06:31:36.718Z,100712.66
2018-02-13T06:34:04.122Z,100713.48
2018-02-13T06:36:31.589Z,100714.78
2018-02-13T06:38:59.049Z,100711.73
2018-02-13T06:41:26.442Z,100706.95
2018-02-13T06:43:53.861Z,100709.32
2018-02-13T06:46:21.254Z,100704.71
2018-02-13T06:48:48.682Z,100708.06
2018-02-13T06:51:16.074Z,100708.13
2018-02-13T06:53:43.500Z,100706.64
2018-02-13T06:56:10.950Z,100706.98
2018-02-13T06:58:38.354Z,100701.16
2018-02-13T07:01:05.746Z,100705.97
2018-02-13T07:03:33.146Z,100713.08
2018-02-13T07:06:00.558Z,100706.38
2018-02-13T07:08:27.949Z,100712.33
2018-02-13T07:10:55.342Z,100713.84
2018-02-13T07:13:23.334Z,100713.25
2018-02-13T07:15:50.806Z,100714.41
2018-02-13T07:18:18.211Z,100720.59
2018-02-13T07:20:45.599Z,100723.27
2018-02-13T07:23:12.998Z,100709.44
2018-02-13T07:25:40.417Z,100711.77
2018-02-13T07:28:07.878Z,100711.88
2018-02-13T07:30:35.282Z,100713.16
2018-02-13T07:33:02.785Z,100717.11
2018-02-13T07:35:30.176Z,100722.04
2018-02-13T07:37:57.606Z,100719.23
2018-02-13T07:40:25.164Z,100726.95
2018-02-13T07:42:52.609Z,100722.97
2018-02-13T07:45:20.072Z,100731.11
2018-02-13T07:47:47.533Z,100720.98
2018-02-13T07:50:14.988Z,100724.27
2018-02-13T07:52:42.374Z,100729.13
2018-02-13T07:55:09.790Z,100731.92
2018-02-13T07:57:37.254Z,100729.78
2018-02-13T08:00:04.683Z,100730.93
2018-02-13T08:02:32.050Z,100733.13
2018-02-13T08:04:59.454Z,100733.78
2018-02-13T08:07:26.841Z,100730.64
2018-02-13T08:09:54.333Z,100734.00
2018-02-13T08:12:21.785Z,100728.89
2018-02-13T08:14:49.183Z,100733.38
2018-02-13T08:17:16.574Z,100733.69
2018-02-13T08:19:43.969Z,100735.63
2018-02-13T08:22:11.410Z,100737.45
2018-02-13T08:24:38.803Z,100732.55
2018-02-13T08:27:06.193Z,100727.22
2018-02-13T08:29:33.598Z,100730.36
2018-02-13T08:32:00.996Z,100729.14
2018-02-13T08:34:28.404Z,100729.86
2018-02-13T08:36:55.802Z,100720.23
2018-02-13T08:39:23.298Z,100721.48
2018-02-13T08:41:50.689Z,100723.52
2018-02-13T08:44:18.086Z,100724.37
2018-02-13T08:46:45.557Z,100720.08
2018-02-13T08:49:13.014Z,100722.27
2018-02-13T08:51:40.469Z,100717.74
2018-02-13T08:54:07.871Z,100719.97
2018-02-13T08:56:35.278Z,100718.20
2018-02-13T08:59:02.677Z,100716.87
2018-02-13T09:01:30.109Z,100722.54
2018-02-13T09:03:57.550Z,100719.88
2018-02-13T09:06:24.949Z,100723.44
2018-02-13T09:08:52.346Z,100722.85
2018-02-13T09:11:19.816Z,100724.21
2018-02-13T09:13:47.265Z,100721.63
2018-02-13T09:16:14.694Z,100718.16
2018-02-13T09:18:42.182Z,100715.50
2018-02-13T09:21:09.638Z,100703.98
2018-02-13T09:23:37.099Z,100714.59
2018-02-13T09:26:04.497Z,100706.12
2018-02-13T09:28:31.898Z,100709.34
2018-02-13T09:30:59.294Z,100708.31
2018-02-13T09:33:26.691Z,100708.01
2018-02-13T09:35:54.178Z,100709.88
2018-02-13T09:38:21.574Z,100709.57
2018-02-13T09:40:48.974Z,100703.98
2018-02-13T09:43:16.365Z,100701.23
2018-02-13T09:45:43.773Z,100707.78
2018-02-13T09:48:11.166Z,100698.28
2018-02-13T09:50:38.609Z,100706.88
2018-02-13T09:53:06.001Z,100705.23
2018-02-13T09:55:33.406Z,100699.52
2018-02-13T09:58:00.878Z,100700.91
2018-02-13T10:00:28.290Z,100697.55
2018-02-13T10:02:55.686Z,100700.01
2018-02-13T10:05:23.085Z,100697.56
2018-02-13T10:07:50.494Z,100696.60
2018-02-13T10:10:17.893Z,100687.27
2018-02-13T10:12:45.293Z,100693.82
2018-02-13T10:15:12.699Z,100686.76
2018-02-13T10:17:40.086Z,100689.62
2018-02-13T10:20:07.490Z,100690.73
2018-02-13T10:22:34.894Z,100687.80
2018-02-13T10:25:02.383Z,100687.74
2018-02-13T10:27:29.779Z,100685.02
2018-02-13T10:29:57.181Z,100691.75
2018-02-13T10:32:24.658Z,100686.42
2018-02-13T10:34:52.130Z,100688.73
2018-02-13T10:37:19.565Z,100684.63
2018-02-13T10:39:46.966Z,100697.17
2018-02-13T10:42:14.361Z,100692.77
2018-02-13T10:44:41.838Z,100691.80
2018-02-13T10:47:09.222Z,100695.63
2018-02-13T10:49:36.628Z,100694.43
2018-02-13T10:52:04.206Z,100687.23
2018-02-13T10:54:31.662Z,100681.18
2018-02-13T10:56:59.118Z,100685.77
2018-02-13T10:59:26.593Z,100682.13
2018-02-13T11:01:59.453Z,100684.60
2018-02-13T11:04:26.850Z,100691.53
2018-02-13T11:06:54.244Z,100681.95
2018-02-13T11:09:21.650Z,100685.56
2018-02-13T11:11:49.045Z,100679.02
2018-02-13T11:14:16.449Z,100679.87
2018-02-13T11:16:43.830Z,100671.95
2018-02-13T11:19:11.218Z,100670.92
2018-02-13T11:21:38.713Z,100673.00
2018-02-13T11:24:06.093Z,100666.83
2018-02-13T11:26:33.494Z,100675.14
2018-02-13T11:29:00.887Z,100674.27
2018-02-13T11:31:28.293Z,100671.12
2018-02-13T11:33:55.786Z,100672.05
2018-02-13T11:36:23.187Z,100671.40
2018-02-13T11:38:50.585Z,100675.27
2018-02-13T11:41:17.989Z,100665.41
2018-02-13T11:43:45.408Z,100660.27
2018-02-13T11:46:12.798Z,100655.05
2018-02-13T11:48:40.218Z,100661.97
2018-02-13T11:51:07.609Z,100667.70
2018-02-13T11:53:34.999Z,100655.97
2018-02-13T11:56:02.398Z,100661.19
2018-02-13T11:58:29.786Z,100649.61
2018-02-13T12:00:57.241Z,100652.52
2018-02-13T12:03:24.597Z,100652.49
2018-02-13T12:05:51.990Z,100646.74
2018-02-13T12:08:19.373Z,100643.08
2018-02-13T12:10:46.777Z,100639.25
2018-02-13T12:13:14.159Z,100644.77
2018-02-13T12:15:41.571Z,100651.20
2018-02-13T12:18:08.979Z,100637.22
2018-02-13T12:20:36.370Z,100644.56
2018-02-13T12:23:03.758Z,100644.03
2018-02-13T12:25:42.005Z,100642.32
2018-02-13T12:28:09.383Z,100635.66
2018-02-13T12:30:36.783Z,100625.30
2018-02-13T12:33:04.166Z,100638.89
2018-02-13T12:35:31.552Z,100631.16
2018-02-13T12:37:58.994Z,100624.39
2018-02-13T12:40:26.390Z,100632.83
2018-02-13T12:42:53.794Z,100632.70
2018-02-13T12:45:21.181Z,100621.32
2018-02-13T12:47:48.575Z,100629.91
2018-02-13T12:50:15.958Z,100618.53
2018-02-13T12:52:43.342Z,100618.43
2018-02-13T12:55:10.766Z,100617.19
2018-02-13T12:57:38.221Z,100614.61
2018-02-13T13:00:05.632Z,100614.41
2018-02-13T13:02:33.006Z,100607.25
2018-02-13T13:05:00.410Z,100602.84
2018-02-13T13:07:27.809Z,100596.28
2018-02-13T13:09:55.202Z,100601.16
2018-02-13T13:12:22.593Z,100597.03
2018-02-13T13:14:50.006Z,100593.92
2018-02-13T13:17:17.407Z,100594.84
2018-02-13T13:19:44.863Z,100590.27
2018-02-13T13:22:12.277Z,100584.44
2018-02-13T13:24:39.721Z,100593.52
2018-02-13T13:27:07.133Z,100589.54
2018-02-13T13:29:34.516Z,100588.58
2018-02-13T13:32:01.910Z,100586.62
2018-02-13T13:34:29.366Z,100591.11
2018-02-13T13:36:56.822Z,100581.52
2018-02-13T13:39:24.210Z,100578.12
2018-02-13T13:41:51.602Z,100577.19
2018-02-13T13:44:19.090Z,100574.25
2018-02-13T13:46:46.479Z,100577.30
2018-02-13T13:49:13.894Z,100572.43
2018-02-13T13:51:41.285Z,100565.98
2018-02-13T13:54:08.673Z,100570.10
2018-02-13T13:56:36.053Z,100568.02
2018-02-13T13:59:03.594Z,100565.48
2018-02-13T14:01:31.030Z,100564.70
2018-02-13T14:03:58.422Z,100565.16
2018-02-13T14:06:25.901Z,100558.41
2018-02-13T14:08:53.286Z,100562.16
2018-02-13T14:11:20.677Z,100563.77
2018-02-13T14:13:48.166Z,100560.71
2018-02-13T14:16:15.555Z,100561.87
2018-02-13T14:18:42.936Z,100560.61
2018-02-13T14:21:10.430Z,100562.66
2018-02-13T14:23:37.822Z,100560.28
2018-02-13T14:26:05.213Z,100561.38
2018-02-13T14:28:32.599Z,100563.47
2018-02-13T14:30:59.986Z,100558.71
2018-02-13T14:33:27.410Z,100564.86
2018-02-13T14:35:54.810Z,100566.80
2018-02-13T14:38:22.189Z,100561.64
2018-02-13T14:40:49.692Z,100558.70
2018-02-13T14:43:17.086Z,100563.72
2018-02-13T14:45:44.656Z,100564.25
2018-02-13T14:48:12.068Z,100568.42
2018-02-13T14:50:39.474Z,100575.42
2018-02-13T14:53:06.863Z,100574.79
2018-02-13T14:55:34.248Z,100577.45
2018-02-13T14:58:01.655Z,100579.63
2018-02-13T15:00:29.033Z,100577.98
2018-02-13T15:02:56.426Z,100582.13
2018-02-13T15:05:23.838Z,100589.27
2018-02-13T15:07:52.274Z,100586.78
2018-02-13T15:10:19.711Z,100583.47
2018-02-13T15:12:47.110Z,100582.66
2018-02-13T15:15:16.310Z,100582.95
2018-02-13T15:18:02.447Z,100585.86
2018-02-13T15:20:29.878Z,100591.09
2018-02-13T15:22:57.262Z,100594.26
2018-02-13T15:25:24.650Z,100587.41
2018-02-13T15:27:52.037Z,100596.63
2018-02-13T15:30:19.430Z,100592.63
2018-02-13T15:32:46.817Z,100593.95
2018-02-13T15:35:14.207Z,100590.80
2018-02-13T15:37:41.673Z,100599.52
2018-02-13T15:40:09.059Z,100595.73
2018-02-13T15:42:36.468Z,100599.25
2018-02-13T15:45:03.846Z,100594.78
2018-02-13T15:47:31.235Z,100598.58
2018-02-13T15:49:58.615Z,100595.70
2018-02-13T15:52:26.005Z,100599.94
2018-02-13T15:54:53.390Z,100589.70
2018-02-13T15:57:20.786Z,100596.38
2018-02-13T15:59:48.391Z,100601.33
2018-02-13T16:02:15.765Z,100599.89
2018-02-13T16:04:43.182Z,100595.41
2018-02-13T16:07:10.606Z,100605.64
2018-02-13T16:09:37.994Z,100606.66
2018-02-13T16:12:05.382Z,100606.64
2018-02-13T16:14:32.810Z,100611.27
2018-02-13T16:17:00.196Z,100606.63
2018-02-13T16:19:27.573Z,100608.86
2018-02-13T16:21:55.074Z,100613.52
2018-02-13T16:24:22.462Z,100612.81
2018-02-13T16:26:49.851Z,100615.76
2018-02-13T16:29:17.230Z,100622.81
2018-02-13T16:31:44.942Z,100612.11
2018-02-13T16:34:12.376Z,100620.19
2018-02-13T16:36:39.761Z,100622.27
2018-02-13T16:39:07.175Z,100621.42
2018-02-13T16:41:34.560Z,100623.30
2018-02-13T16:44:01.943Z,100624.88
2018-02-13T16:46:29.656Z,100622.95
2018-02-13T16:48:57.117Z,100628.15
2018-02-13T16:51:24.558Z,100624.46
2018-02-13T16:53:52.010Z,100632.89
2018-02-13T16:56:19.470Z,100638.45
2018-02-13T16:58:46.943Z,100636.72
2018-02-13T17:01:14.335Z,100631.66
2018-02-13T17:03:41.720Z,100634.53
2018-02-13T17:06:09.206Z,100636.64
2018-02-13T17:08:36.578Z,100640.31
2018-02-13T17:11:04.006Z,100640.65
2018-02-13T17:13:31.467Z,100637.36
2018-02-13T17:15:58.850Z,100641.72
2018-02-13T17:18:26.295Z,100642.82
2018-02-13T17:20:53.729Z,100644.88
2018-02-13T17:23:21.127Z,100640.55
2018-02-13T17:25:48.506Z,100640.00
2018-02-13T17:28:15.902Z,100640.77
2018-02-13T17:30:43.304Z,100648.38
2018-02-13T17:33:10.717Z,100645.33
2018-02-13T17:35:38.078Z,100647.95
2018-02-13T17:38:05.482Z,100646.81
2018-02-13T17:40:32.853Z,100648.83
2018-02-13T17:43:00.267Z,100648.50
2018-02-13T17:45:27.650Z,100651.91
2018-02-13T17:47:55.054Z,100655.55
2018-02-13T17:50:22.520Z,100654.70
2018-02-13T17:52:49.898Z,100653.64
2018-02-13T17:55:17.282Z,100650.81
2018-02-13T17:57:44.763Z,100657.71
2018-02-13T18:00:12.241Z,100668.29
2018-02-13T18:02:39.675Z,100665.44
2018-02-13T18:05:07.080Z,100664.63
2018-02-13T18:07:34.466Z,100675.54
2018-02-13T18:10:01.942Z,100675.04
2018-02-13T18:12:29.394Z,100678.67
2018-02-13T18:14:56.777Z,100667.98
2018-02-13T18:17:24.170Z,100669.43
2018-02-13T18:19:51.665Z,100673.47
2018-02-13T18:22:18.963Z,100674.80
2018-02-13T18:24:46.374Z,100671.98
2018-02-13T18:27:13.821Z,100670.36
2018-02-13T18:29:41.209Z,100674.80
2018-02-13T18:32:08.643Z,100674.55
2018-02-13T18:34:36.047Z,100677.30
2018-02-13T18:37:03.438Z,100671.16
2018-02-13T18:39:30.851Z,100680.76
2018-02-13T18:41:58.316Z,100678.98
2018-02-13T18:44:25.723Z,100677.19
2018-02-13T18:46:53.125Z,100682.19
2018-02-13T18:49:20.578Z,100679.80
2018-02-13T18:51:48.052Z,100678.08
2018-02-13T18:54:15.459Z,100685.91
2018-02-13T18:56:42.866Z,100688.80
2018-02-13T18:59:10.278Z,100690.78
2018-02-13T19:01:37.669Z,100687.84
2018-02-13T19:04:05.062Z,100688.53
2018-02-13T19:06:32.449Z,100692.34
2018-02-13T19:08:59.863Z,100695.02
2018-02-13T19:11:27.255Z,100697.27
2018-02-13T19:13:54.646Z,100695.94
2018-02-13T19:16:22.034Z,100698.94
2018-02-13T19:18:49.547Z,100691.17
2018-02-13T19:21:16.942Z,100695.66
2018-02-13T19:23:44.339Z,100698.55
2018-02-13T19:26:11.725Z,100704.70
2018-02-13T19:28:39.167Z,100708.50
2018-02-13T19:31:06.556Z,100693.21
2018-02-13T19:33:33.953Z,100699.58
2018-02-13T19:36:01.342Z,100707.09
2018-02-13T19:38:28.756Z,100719.14
2018-02-13T19:40:56.146Z,100712.13
2018-02-13T19:43:23.566Z,100715.98
2018-02-13T19:45:50.954Z,100710.59
2018-02-13T19:48:18.341Z,100716.53
2018-02-13T19:50:45.730Z,100709.19
2018-02-13T19:53:13.130Z,100708.77
2018-02-13T19:55:40.539Z,100713.62
2018-02-13T19:58:07.954Z,100715.41
2018-02-13T20:00:35.356Z,100710.77
2018-02-13T20:03:02.750Z,100715.13
2018-02-13T20:05:31.097Z,100715.49
2018-02-13T20:07:59.018Z,100724.19
2018-02-13T20:10:26.405Z,100722.07
2018-02-13T20:12:53.802Z,100728.58
2018-02-13T20:15:21.199Z,100732.27
2018-02-13T20:17:48.654Z,100733.30
2018-02-13T20:20:16.041Z,100733.32
2018-02-13T20:22:43.454Z,100734.95
2018-02-13T20:25:10.838Z,100739.05
2018-02-13T20:27:38.278Z,100731.97
2018-02-13T20:30:05.734Z,100740.64
2018-02-13T20:32:33.129Z,100742.16
2018-02-13T20:35:00.602Z,100739.72
2018-02-13T20:37:28.066Z,100747.60
2018-02-13T20:39:55.452Z,100739.34
2018-02-13T20:42:22.851Z,100741.95
2018-02-13T20:44:50.242Z,100739.42
2018-02-13T20:47:17.686Z,100734.69
2018-02-13T20:49:45.071Z,100742.58
2018-02-13T20:52:12.462Z,100740.25
2018-02-13T20:54:39.974Z,100738.70
2018-02-13T20:57:07.355Z,100743.08
2018-02-13T20:59:34.752Z,100737.17
2018-02-13T21:02:02.151Z,100743.66
2018-02-13T21:04:29.550Z,100743.12
2018-02-13T21:06:56.946Z,100744.55
2018-02-13T21:09:24.384Z,100742.64
2018-02-13T21:11:51.768Z,100743.64
2018-02-13T21:14:19.250Z,100739.02
2018-02-13T21:16:46.642Z,100743.75
2018-02-13T21:19:14.040Z,100746.42
2018-02-13T21:21:41.507Z,100745.14
2018-02-13T21:24:08.903Z,100741.78
2018-02-13T21:26:36.291Z,100744.34
2018-02-13T21:29:03.770Z,100745.13
2018-02-13T21:31:31.154Z,100748.66
2018-02-13T21:33:58.542Z,100750.77
2018-02-13T21:36:26.048Z,100757.44
2018-02-13T21:38:53.499Z,100762.79
2018-02-13T21:41:20.949Z,100764.86
2018-02-13T21:43:48.350Z,100769.98
2018-02-13T21:46:15.757Z,100769.89
2018-02-13T21:48:43.162Z,100774.67
2018-02-13T21:51:10.566Z,100773.50
2018-02-13T21:53:37.967Z,100768.87
2018-02-13T21:56:05.361Z,100768.92
2018-02-13T21:58:32.842Z,100768.34
2018-02-13T22:01:00.238Z,100766.59
2018-02-13T22:03:27.627Z,100766.19
2018-02-13T22:05:55.068Z,100771.33
2018-02-13T22:08:22.482Z,100767.47
2018-02-13T22:10:49.862Z,100767.00
2018-02-13T22:13:17.258Z,100761.73
2018-02-13T22:15:44.649Z,100765.25
2018-02-13T22:18:12.099Z,100773.07
2018-02-13T22:20:39.559Z,100767.47
2018-02-13T22:23:06.954Z,100768.86
2018-02-13T22:25:34.370Z,100765.94
2018-02-13T22:28:02.238Z,100764.25
2018-02-13T22:30:29.689Z,100765.70
2018-02-13T22:32:57.091Z,100769.55
2018-02-13T22:35:24.470Z,100771.31
2018-02-13T22:37:51.886Z,100768.66
2018-02-13T22:40:19.274Z,100769.63
2018-02-13T22:42:46.662Z,100766.77
2018-02-13T22:45:14.136Z,100772.48
2018-02-13T22:47:41.530Z,100767.05
2018-02-13T22:50:08.925Z,100769.16
2018-02-13T22:52:36.394Z,100771.07
2018-02-13T22:55:03.788Z,100773.63
2018-02-13T22:57:31.198Z,100782.18
2018-02-13T22:59:58.858Z,100777.29
2018-02-13T23:02:26.238Z,100789.42
2018-02-13T23:04:53.650Z,100787.02
2018-02-13T23:07:21.050Z,100787.31
2018-02-13T23:09:48.448Z,100793.27
2018-02-13T23:12:15.847Z,100798.41
2018-02-13T23:14:43.236Z,100794.20
2018-02-13T23:17:10.719Z,100797.96
2018-02-13T23:19:38.174Z,100802.30
2018-02-13T23:22:05.564Z,100797.08
2018-02-13T23:24:32.967Z,100801.52
2018-02-13T23:27:00.410Z,100804.20
2018-02-13T23:29:27.774Z,100801.19
2018-02-13T23:31:55.160Z,100797.52
2018-02-13T23:34:22.601Z,100797.44
2018-02-13T23:36:49.993Z,100804.42
2018-02-13T23:39:17.413Z,100801.28
2018-02-13T23:41:44.865Z,100799.13
2018-02-13T23:44:12.267Z,100798.01
2018-02-13T23:46:39.696Z,100810.06
2018-02-13T23:49:07.099Z,100806.87
2018-02-13T23:51:34.481Z,100807.78
2018-02-13T23:54:01.870Z,100810.39
2018-02-13T23:56:29.254Z,100814.73
2018-02-13T23:58:56.658Z,100813.03
